Rowland, North Carolina
Current Conditions -  °F | °C
As of 1:54 AM on Sunday 26 Oct 2014 (Local Time) from KLBT Reporting Station
Clear Clear  
Wind Chill: 51°   Ceiling: Unl
Heat Index: 51°   Visibility: 10mi
Dew Point: 44°   Wind: 5mph
Humidity: 77%   Direction: 270°W
Pressure: 29.88"   Gusts: NA
Location:  34.54°N, 79.29°W
Report Text: KLBT 260554Z AUTO 27004KT 10SM CLR 11/07 A2988 RMK AO2 SLP118 T01060067 10128 20094 55014
Loading
Personal Weather Stations






























Interactive Weather Map
Tropical Storm Tracking
New forecast layout! Learn more

10-Day Weather Forecast

Advertisements
Track Severe Weather on mobile